createdAt,value
2022-11-28T00:01:29.407Z,102063.88
2022-11-28T00:03:57.446Z,102063.88
2022-11-28T00:06:27.322Z,102066.53
2022-11-28T00:08:55.811Z,102062.16
2022-11-28T00:11:25.539Z,102066.59
2022-11-28T00:13:54.551Z,102071.75
2022-11-28T00:16:23.338Z,102065.59
2022-11-28T00:18:53.332Z,102071.69
2022-11-28T00:21:21.289Z,102078.69
2022-11-28T00:23:53.415Z,102082.19
2022-11-28T00:26:34.183Z,102069.09
2022-11-28T00:29:03.730Z,102076.97
2022-11-28T00:31:35.859Z,102076.91
2022-11-28T00:34:03.743Z,102077.78
2022-11-28T00:36:34.451Z,102070.78
2022-11-28T00:39:02.283Z,102076.00
2022-11-28T00:41:31.222Z,102070.78
2022-11-28T00:43:59.007Z,102069.88
2022-11-28T00:46:27.192Z,102078.59
2022-11-28T00:49:14.601Z,102073.31
2022-11-28T00:51:43.454Z,102076.78
2022-11-28T00:54:11.440Z,102080.28
2022-11-28T00:56:40.464Z,102075.06
2022-11-28T00:59:08.907Z,102068.03
2022-11-28T01:01:40.367Z,102067.97
2022-11-28T01:04:11.157Z,102071.41
2022-11-28T01:06:41.445Z,102077.66
2022-11-28T01:09:13.827Z,102080.28
2022-11-28T01:11:43.159Z,102071.56
2022-11-28T01:14:12.812Z,102069.94
2022-11-28T01:16:40.875Z,102078.59
2022-11-28T01:19:08.994Z,102077.66
2022-11-28T01:21:36.991Z,102085.44
2022-11-28T01:24:04.971Z,102079.28
2022-11-28T01:26:33.159Z,102080.13
2022-11-28T01:29:01.191Z,102083.69
2022-11-28T01:31:30.570Z,102076.72
2022-11-28T01:33:59.257Z,102082.84
2022-11-28T01:36:27.360Z,102073.22
2022-11-28T01:38:54.900Z,102078.50
2022-11-28T01:41:26.414Z,102070.69
2022-11-28T01:44:07.084Z,102081.19
2022-11-28T01:46:36.386Z,102084.69
2022-11-28T01:49:22.921Z,102089.06
2022-11-28T01:52:00.297Z,102078.59
2022-11-28T01:54:29.883Z,102082.94
2022-11-28T01:57:02.129Z,102084.66
2022-11-28T01:59:37.323Z,102083.84
2022-11-28T02:02:13.594Z,102080.38
2022-11-28T02:04:42.706Z,102078.63
2022-11-28T02:07:10.874Z,102082.19
2022-11-28T02:09:38.421Z,102087.41
2022-11-28T02:12:09.011Z,102093.50
2022-11-28T02:14:48.440Z,102091.81
2022-11-28T02:17:36.207Z,102090.06
2022-11-28T02:20:22.431Z,102085.66
2022-11-28T02:23:07.950Z,102084.81
2022-11-28T02:26:06.370Z,102081.25
2022-11-28T02:28:55.316Z,102088.25
2022-11-28T02:31:56.464Z,102087.34
2022-11-28T02:34:31.987Z,102085.50
2022-11-28T02:37:21.288Z,102087.25
2022-11-28T02:40:23.380Z,102097.72
2022-11-28T02:43:05.477Z,102087.22
2022-11-28T02:45:48.100Z,102088.03
2022-11-28T02:48:23.072Z,102094.19
2022-11-28T02:51:14.973Z,102074.97
2022-11-28T02:53:45.911Z,102086.31
2022-11-28T02:56:14.127Z,102087.16
2022-11-28T02:58:42.961Z,102087.13
2022-11-28T03:01:47.773Z,102086.19
2022-11-28T03:04:36.206Z,102084.44
2022-11-28T03:07:33.240Z,102088.91
2022-11-28T03:10:48.167Z,102092.41
2022-11-28T03:13:39.885Z,102088.88
2022-11-28T03:16:24.880Z,102089.75
2022-11-28T03:19:28.479Z,102085.38
2022-11-28T03:22:28.367Z,102092.41
2022-11-28T03:25:11.213Z,102092.38
2022-11-28T03:27:54.502Z,102095.06
2022-11-28T03:30:34.518Z,102093.31
2022-11-28T03:33:03.716Z,102103.75
2022-11-28T03:35:38.134Z,102104.63
2022-11-28T03:38:20.443Z,102105.50
2022-11-28T03:40:53.423Z,102120.34
2022-11-28T03:43:31.438Z,102112.50
2022-11-28T03:46:05.522Z,102117.66
2022-11-28T03:48:39.881Z,102114.09
2022-11-28T03:51:33.173Z,102123.66
2022-11-28T03:54:04.567Z,102123.69
2022-11-28T03:56:32.013Z,102122.03
2022-11-28T03:59:09.768Z,102116.81
2022-11-28T04:01:49.671Z,102120.28
2022-11-28T04:04:26.012Z,102115.94
2022-11-28T04:07:08.174Z,102120.25
2022-11-28T04:09:42.866Z,102120.25
2022-11-28T04:12:34.668Z,102127.25
2022-11-28T04:15:25.797Z,102124.59
2022-11-28T04:17:56.362Z,102125.47
2022-11-28T04:20:39.362Z,102123.72
2022-11-28T04:23:12.641Z,102123.78
2022-11-28T04:25:46.903Z,102122.84
2022-11-28T04:28:20.488Z,102127.22
2022-11-28T04:30:51.355Z,102127.22
2022-11-28T04:33:23.099Z,102126.34
2022-11-28T04:35:53.879Z,102129.84
2022-11-28T04:38:24.889Z,102135.09
2022-11-28T04:41:12.552Z,102134.22
2022-11-28T04:43:45.075Z,102134.31
2022-11-28T04:46:21.798Z,102133.41
2022-11-28T04:48:49.577Z,102129.03
2022-11-28T04:51:24.569Z,102135.16
2022-11-28T04:54:14.948Z,102132.63
2022-11-28T04:56:49.918Z,102134.31
2022-11-28T04:59:22.396Z,102141.34
2022-11-28T05:01:50.449Z,102142.31
2022-11-28T05:04:18.714Z,102148.44
2022-11-28T05:06:46.457Z,102140.63
2022-11-28T05:09:14.569Z,102140.69
2022-11-28T05:11:43.667Z,102147.63
2022-11-28T05:14:11.163Z,102142.41
2022-11-28T05:16:38.903Z,102141.50
2022-11-28T05:19:06.685Z,102149.41
2022-11-28T05:21:34.240Z,102148.50
2022-11-28T05:24:01.858Z,102144.13
2022-11-28T05:26:32.496Z,102162.47
2022-11-28T05:29:02.023Z,102159.88
2022-11-28T05:31:31.300Z,102170.31
2022-11-28T05:33:59.210Z,102166.88
2022-11-28T05:36:26.671Z,102168.59
2022-11-28T05:38:54.194Z,102179.97
2022-11-28T05:41:27.530Z,102178.19
2022-11-28T05:43:56.586Z,102179.97
2022-11-28T05:46:25.961Z,102180.00
2022-11-28T05:48:53.527Z,102180.88
2022-11-28T05:51:21.004Z,102180.91
2022-11-28T05:53:48.920Z,102187.84
2022-11-28T05:56:19.490Z,102185.22
2022-11-28T05:58:47.067Z,102186.97
2022-11-28T06:01:17.862Z,102194.81
2022-11-28T06:03:46.205Z,102181.72
2022-11-28T06:06:15.952Z,102191.25
2022-11-28T06:08:44.439Z,102192.19
2022-11-28T06:11:14.687Z,102193.06
2022-11-28T06:13:43.814Z,102192.25
2022-11-28T06:16:19.968Z,102195.72
2022-11-28T06:18:48.183Z,102193.97
2022-11-28T06:21:16.309Z,102203.59
2022-11-28T06:23:43.888Z,102194.00
2022-11-28T06:26:13.968Z,102202.75
2022-11-28T06:28:41.917Z,102208.88
2022-11-28T06:31:21.001Z,102209.81
2022-11-28T06:33:49.779Z,102211.59
2022-11-28T06:36:19.385Z,102213.34
2022-11-28T06:38:47.953Z,102211.59
2022-11-28T06:41:18.545Z,102214.25
2022-11-28T06:43:46.327Z,102216.88
2022-11-28T06:46:17.004Z,102216.88
2022-11-28T06:48:45.941Z,102219.47
2022-11-28T06:51:14.507Z,102216.88
2022-11-28T06:53:42.103Z,102224.75
2022-11-28T06:56:16.230Z,102222.09
2022-11-28T06:58:44.686Z,102225.63
2022-11-28T07:01:15.938Z,102230.00
2022-11-28T07:03:44.804Z,102228.22
2022-11-28T07:06:13.739Z,102227.34
2022-11-28T07:08:41.943Z,102232.59
2022-11-28T07:11:21.475Z,102232.56
2022-11-28T07:13:49.712Z,102234.34
2022-11-28T07:16:23.396Z,102236.06
2022-11-28T07:18:52.324Z,102236.97
2022-11-28T07:21:20.866Z,102233.50
2022-11-28T07:23:49.257Z,102229.13
2022-11-28T07:26:18.906Z,102236.13
2022-11-28T07:28:48.380Z,102236.09
2022-11-28T07:31:19.476Z,102237.00
2022-11-28T07:33:49.323Z,102243.13
2022-11-28T07:36:23.219Z,102251.84
2022-11-28T07:38:56.687Z,102255.31
2022-11-28T07:41:26.922Z,102253.53
2022-11-28T07:44:02.216Z,102253.56
2022-11-28T07:46:32.106Z,102258.81
2022-11-28T07:49:00.765Z,102249.19
2022-11-28T07:51:31.362Z,102262.28
2022-11-28T07:54:02.563Z,102259.69
2022-11-28T07:57:04.090Z,102261.44
2022-11-28T07:59:20.821Z,102253.59
2022-11-28T08:02:43.676Z,102255.34
2022-11-28T08:05:23.646Z,102259.72
2022-11-28T08:07:52.827Z,102259.69
2022-11-28T08:10:20.561Z,102257.09
2022-11-28T08:13:07.972Z,102264.03
2022-11-28T08:15:37.937Z,102248.34
2022-11-28T08:18:06.906Z,102255.31
2022-11-28T08:20:34.557Z,102246.56
2022-11-28T08:23:02.263Z,102250.91
2022-11-28T08:25:29.841Z,102251.78
2022-11-28T08:27:57.444Z,102249.16
2022-11-28T08:30:25.067Z,102237.81
2022-11-28T08:32:52.848Z,102246.53
2022-11-28T08:35:20.637Z,102243.03
2022-11-28T08:37:48.242Z,102241.31
2022-11-28T08:40:16.097Z,102240.47
2022-11-28T08:42:43.790Z,102238.69
2022-11-28T08:45:12.166Z,102234.28
2022-11-28T08:47:39.921Z,102236.06
2022-11-28T08:50:08.085Z,102241.28
2022-11-28T08:52:36.167Z,102236.91
2022-11-28T08:55:04.066Z,102239.56
2022-11-28T08:57:32.229Z,102236.03
2022-11-28T09:00:00.096Z,102242.97
2022-11-28T09:02:27.681Z,102239.47
2022-11-28T09:04:56.083Z,102230.69
2022-11-28T09:07:23.934Z,102235.97
2022-11-28T09:09:51.724Z,102239.50
2022-11-28T09:12:19.707Z,102236.94
2022-11-28T09:14:47.645Z,102238.66
2022-11-28T09:17:18.270Z,102226.44
2022-11-28T09:19:46.017Z,102229.94
2022-11-28T09:22:13.552Z,102223.78
2022-11-28T09:24:41.000Z,102226.38
2022-11-28T09:27:10.709Z,102225.53
2022-11-28T09:29:38.287Z,102222.91
2022-11-28T09:32:06.161Z,102217.66
2022-11-28T09:34:34.061Z,102220.28
2022-11-28T09:37:04.894Z,102217.63
2022-11-28T09:39:50.315Z,102220.25
2022-11-28T09:42:44.157Z,102215.09
2022-11-28T09:45:23.661Z,102222.03
2022-11-28T09:47:59.546Z,102211.50
2022-11-28T09:50:33.027Z,102211.56
2022-11-28T09:53:22.743Z,102209.78
2022-11-28T09:55:52.694Z,102213.31
2022-11-28T09:58:28.899Z,102208.94
2022-11-28T10:01:12.276Z,102206.31
2022-11-28T10:03:48.697Z,102201.94
2022-11-28T10:06:23.819Z,102210.69
2022-11-28T10:08:54.532Z,102209.84
2022-11-28T10:11:45.386Z,102208.09
2022-11-28T10:14:21.914Z,102208.97
2022-11-28T10:17:01.861Z,102206.34
2022-11-28T10:19:56.433Z,102207.19
2022-11-28T10:22:48.468Z,102211.56
2022-11-28T10:25:38.858Z,102204.53
2022-11-28T10:28:13.655Z,102197.56
2022-11-28T10:30:46.623Z,102194.16
2022-11-28T10:33:33.937Z,102195.91
2022-11-28T10:36:03.345Z,102206.41
2022-11-28T10:38:34.843Z,102201.16
2022-11-28T10:41:12.908Z,102209.00
2022-11-28T10:44:02.062Z,102206.38
2022-11-28T10:46:59.374Z,102207.25
2022-11-28T10:49:33.373Z,102209.00
2022-11-28T10:52:15.494Z,102209.03
2022-11-28T10:54:49.927Z,102202.94
2022-11-28T10:57:20.426Z,102202.94
2022-11-28T10:59:47.954Z,102196.81
2022-11-28T11:02:32.757Z,102203.78
2022-11-28T11:05:01.470Z,102203.00
2022-11-28T11:07:31.845Z,102201.25
2022-11-28T11:10:15.322Z,102201.25
2022-11-28T11:12:44.376Z,102209.09
2022-11-28T11:15:32.133Z,102209.13
2022-11-28T11:18:19.772Z,102214.28
2022-11-28T11:20:47.368Z,102206.47
2022-11-28T11:23:22.242Z,102213.44
2022-11-28T11:25:53.795Z,102215.19
2022-11-28T11:28:54.942Z,102210.81
2022-11-28T11:31:32.700Z,102220.41
2022-11-28T11:34:12.902Z,102225.63
2022-11-28T11:36:40.766Z,102218.63
2022-11-28T11:39:11.469Z,102225.66
2022-11-28T11:41:41.583Z,102221.28
2022-11-28T11:44:14.899Z,102223.06
2022-11-28T11:46:56.227Z,102217.78
2022-11-28T11:49:36.290Z,102211.72
2022-11-28T11:52:13.501Z,102219.56
2022-11-28T11:55:11.692Z,102217.84
2022-11-28T11:57:44.657Z,102215.22
2022-11-28T12:00:19.790Z,102217.84
2022-11-28T12:03:25.213Z,102217.00
2022-11-28T12:06:29.120Z,102212.59
2022-11-28T12:10:07.116Z,102218.69
2022-11-28T12:12:37.380Z,102209.13
2022-11-28T12:15:15.602Z,102205.66
2022-11-28T12:18:20.468Z,102218.75
2022-11-28T12:21:13.541Z,102217.84
2022-11-28T12:23:59.162Z,102218.75
2022-11-28T12:26:36.670Z,102218.75
2022-11-28T12:29:32.006Z,102217.03
2022-11-28T12:32:28.394Z,102221.38
2022-11-28T12:35:22.227Z,102226.63
2022-11-28T12:38:11.701Z,102230.97
2022-11-28T12:41:09.596Z,102224.03
2022-11-28T12:44:12.600Z,102231.84
2022-11-28T12:46:51.842Z,102235.38
2022-11-28T12:49:45.398Z,102231.00
2022-11-28T12:52:42.194Z,102230.13
2022-11-28T12:55:56.595Z,102237.97
2022-11-28T12:58:33.831Z,102242.31
2022-11-28T13:01:26.238Z,102240.59
2022-11-28T13:04:41.596Z,102231.00
2022-11-28T13:07:18.493Z,102232.75
2022-11-28T13:10:21.904Z,102244.94
2022-11-28T13:13:05.668Z,102248.44
2022-11-28T13:15:39.162Z,102245.78
2022-11-28T13:18:32.803Z,102242.31
2022-11-28T13:21:11.556Z,102244.94
2022-11-28T13:24:07.532Z,102235.31
2022-11-28T13:26:48.800Z,102248.41
2022-11-28T13:29:31.773Z,102237.94
2022-11-28T13:32:35.586Z,102240.56
2022-11-28T13:35:04.903Z,102251.03
2022-11-28T13:44:46.661Z,102259.72
2022-11-28T13:47:23.775Z,102256.22
2022-11-28T13:49:51.344Z,102257.97
2022-11-28T13:52:18.857Z,102260.59
2022-11-28T13:54:54.576Z,102264.06
2022-11-28T13:57:37.328Z,102269.31
2022-11-28T14:00:29.730Z,102269.31
2022-11-28T14:03:00.095Z,102271.06
2022-11-28T14:05:38.507Z,102269.31
2022-11-28T14:08:07.405Z,102269.31
2022-11-28T14:10:40.832Z,102272.81
2022-11-28T14:13:23.020Z,102264.13
2022-11-28T14:16:09.699Z,102265.00
2022-11-28T14:19:25.694Z,102264.97
2022-11-28T14:22:24.672Z,102261.47
2022-11-28T14:25:23.266Z,102273.69
2022-11-28T14:27:57.205Z,102272.84
2022-11-28T14:30:34.488Z,102264.97
2022-11-28T14:33:15.898Z,102258.88
2022-11-28T14:40:23.475Z,102247.53
2022-11-28T14:43:26.400Z,102259.72
2022-11-28T14:46:23.057Z,102258.00
2022-11-28T14:48:59.880Z,102259.72
2022-11-28T14:51:46.183Z,102260.56
2022-11-28T14:54:29.395Z,102261.44
2022-11-28T14:56:59.975Z,102257.97
2022-11-28T14:59:34.516Z,102256.25
2022-11-28T15:02:25.693Z,102259.72
2022-11-28T15:05:35.101Z,102260.59
2022-11-28T15:08:21.476Z,102264.94
2022-11-28T15:11:13.762Z,102254.50
2022-11-28T15:13:50.996Z,102262.31
2022-11-28T15:16:21.590Z,102266.69
2022-11-28T15:18:54.039Z,102264.88
2022-11-28T15:21:25.149Z,102271.00
2022-11-28T15:23:53.013Z,102272.75
2022-11-28T15:26:29.267Z,102273.63
2022-11-28T15:29:20.958Z,102277.13
2022-11-28T15:31:51.886Z,102276.25
2022-11-28T15:34:28.499Z,102276.25
2022-11-28T15:37:06.614Z,102272.78
2022-11-28T15:39:39.939Z,102271.03
2022-11-28T15:42:22.579Z,102271.00
2022-11-28T15:45:06.799Z,102274.47
2022-11-28T15:47:35.293Z,102284.88
2022-11-28T15:50:17.255Z,102284.91
2022-11-28T15:53:01.427Z,102285.75
2022-11-28T15:55:33.768Z,102294.47
2022-11-28T15:58:32.049Z,102293.59
2022-11-28T16:01:24.376Z,102293.56
2022-11-28T16:04:15.231Z,102282.25
2022-11-28T16:06:49.221Z,102297.06
2022-11-28T16:09:20.171Z,102304.88
2022-11-28T16:11:51.926Z,102298.75
2022-11-28T16:14:29.365Z,102297.94
2022-11-28T16:17:07.160Z,102304.00
2022-11-28T16:19:37.665Z,102297.91
2022-11-28T16:22:09.504Z,102307.47
2022-11-28T16:24:43.098Z,102299.59
2022-11-28T16:27:37.583Z,102297.88
2022-11-28T16:30:26.547Z,102311.75
2022-11-28T16:32:56.027Z,102302.19
2022-11-28T16:35:32.302Z,102310.91
2022-11-28T16:38:24.305Z,102304.81
2022-11-28T16:40:59.194Z,102299.56
2022-11-28T16:43:39.475Z,102299.56
2022-11-28T16:46:17.089Z,102297.75
2022-11-28T16:48:59.141Z,102310.84
2022-11-28T16:51:26.646Z,102306.47
2022-11-28T16:53:55.773Z,102308.22
2022-11-28T16:56:24.431Z,102316.03
2022-11-28T16:58:59.025Z,102321.22
2022-11-28T17:01:27.871Z,102324.72
2022-11-28T17:03:57.367Z,102327.34
2022-11-28T17:06:34.098Z,102322.13
2022-11-28T17:09:02.198Z,102314.25
2022-11-28T17:11:33.521Z,102309.81
2022-11-28T17:14:02.717Z,102308.03
2022-11-28T17:16:33.521Z,102305.31
2022-11-28T17:20:28.423Z,102313.25
2022-11-28T17:22:59.152Z,102313.19
2022-11-28T17:25:26.724Z,102320.06
2022-11-28T17:27:54.350Z,102320.94
2022-11-28T17:30:22.187Z,102325.34
2022-11-28T17:32:52.161Z,102325.34
2022-11-28T17:35:25.238Z,102338.38
2022-11-28T17:37:52.891Z,102333.16
2022-11-28T17:40:36.821Z,102327.94
2022-11-28T17:43:05.093Z,102336.69
2022-11-28T17:45:35.873Z,102333.25
2022-11-28T17:48:03.647Z,102341.09
2022-11-28T17:50:31.432Z,102328.03
2022-11-28T17:52:58.968Z,102327.97
2022-11-28T17:55:26.461Z,102327.13
2022-11-28T17:57:54.271Z,102336.72
2022-11-28T18:00:22.090Z,102333.25
2022-11-28T18:02:49.639Z,102322.75
2022-11-28T18:05:17.354Z,102342.72
2022-11-28T18:07:45.234Z,102340.06
2022-11-28T18:10:12.805Z,102337.38
2022-11-28T18:12:40.454Z,102339.06
2022-11-28T18:15:10.566Z,102334.78
2022-11-28T18:17:38.963Z,102341.78
2022-11-28T18:20:07.305Z,102343.53
2022-11-28T18:22:35.037Z,102336.59
2022-11-28T18:25:02.973Z,102334.03
2022-11-28T18:27:30.951Z,102338.38
2022-11-28T18:29:58.911Z,102337.50
2022-11-28T18:32:26.562Z,102322.72
2022-11-28T18:34:54.928Z,102341.91
2022-11-28T18:37:22.496Z,102336.69
2022-11-28T18:39:49.996Z,102336.53
2022-11-28T18:42:18.181Z,102336.53
2022-11-28T18:44:47.423Z,102343.53
2022-11-28T18:47:15.228Z,102340.06
2022-11-28T18:49:43.100Z,102345.28
2022-11-28T18:52:11.371Z,102352.28
2022-11-28T18:54:38.963Z,102349.59
2022-11-28T18:57:08.018Z,102344.41
2022-11-28T18:59:35.876Z,102348.78
2022-11-28T19:02:03.664Z,102340.00
2022-11-28T19:04:31.505Z,102343.41
2022-11-28T19:07:00.533Z,102337.34
2022-11-28T19:09:28.063Z,102344.28
2022-11-28T19:11:55.897Z,102333.88
2022-11-28T19:14:24.293Z,102333.84
2022-11-28T19:16:54.153Z,102328.63
2022-11-28T19:19:21.751Z,102336.41
2022-11-28T19:21:50.281Z,102332.97
2022-11-28T19:24:19.349Z,102337.34
2022-11-28T19:26:47.115Z,102335.53
2022-11-28T19:29:15.972Z,102329.56
2022-11-28T19:31:43.497Z,102331.34
2022-11-28T19:34:14.720Z,102329.50
2022-11-28T19:36:45.391Z,102324.28
2022-11-28T19:39:19.157Z,102331.25
2022-11-28T19:41:47.507Z,102332.97
2022-11-28T19:44:15.772Z,102334.63
2022-11-28T19:46:43.993Z,102341.56
2022-11-28T19:49:20.177Z,102336.44
2022-11-28T19:51:50.673Z,102345.97
2022-11-28T19:54:22.210Z,102328.56
2022-11-28T19:56:50.687Z,102322.44
2022-11-28T19:59:19.423Z,102325.97
2022-11-28T20:01:49.977Z,102320.81
2022-11-28T20:04:20.393Z,102324.97
2022-11-28T20:06:48.838Z,102324.16
2022-11-28T20:09:16.453Z,102318.97
2022-11-28T20:11:45.258Z,102312.88
2022-11-28T20:14:16.847Z,102316.38
2022-11-28T20:16:46.263Z,102306.78
2022-11-28T20:19:16.454Z,102310.28
2022-11-28T20:21:46.471Z,102315.59
2022-11-28T20:24:15.586Z,102304.31
2022-11-28T20:26:44.535Z,102302.50
2022-11-28T20:29:15.530Z,102308.59
2022-11-28T20:31:45.802Z,102306.81
2022-11-28T20:34:18.037Z,102308.53
2022-11-28T20:36:46.510Z,102315.53
2022-11-28T20:39:14.537Z,102309.44
2022-11-28T20:41:42.102Z,102319.84
2022-11-28T20:44:10.331Z,102319.03
2022-11-28T20:46:38.303Z,102319.06
2022-11-28T20:49:07.221Z,102321.69
2022-11-28T20:51:35.898Z,102322.50
2022-11-28T20:54:05.377Z,102332.88
2022-11-28T20:56:57.963Z,102324.19
2022-11-28T20:59:24.138Z,102320.69
2022-11-28T21:01:51.867Z,102313.69
2022-11-28T21:04:19.678Z,102321.50
2022-11-28T21:06:49.117Z,102318.84
2022-11-28T21:09:18.114Z,102325.72
2022-11-28T21:12:02.833Z,102311.88
2022-11-28T21:14:31.048Z,102320.59
2022-11-28T21:16:59.618Z,102327.56
2022-11-28T21:19:27.421Z,102324.03
2022-11-28T21:21:55.237Z,102315.38
2022-11-28T21:24:22.889Z,102310.22
2022-11-28T21:26:53.855Z,102309.34
2022-11-28T21:29:23.763Z,102310.28
2022-11-28T21:31:52.216Z,102304.13
2022-11-28T21:34:19.880Z,102314.50
2022-11-28T21:36:47.783Z,102302.34
2022-11-28T21:39:18.864Z,102304.06
2022-11-28T21:41:46.887Z,102299.66
2022-11-28T21:44:14.556Z,102302.31
2022-11-28T21:46:42.204Z,102305.75
2022-11-28T21:49:10.191Z,102299.66
2022-11-28T21:51:40.459Z,102299.72
2022-11-28T21:54:10.971Z,102295.25
2022-11-28T21:56:38.677Z,102309.22
2022-11-28T21:59:06.518Z,102305.78
2022-11-28T22:01:34.283Z,102303.25
2022-11-28T22:04:03.021Z,102308.53
2022-11-28T22:06:32.993Z,102300.69
2022-11-28T22:09:08.718Z,102309.34
2022-11-28T22:11:39.697Z,102305.81
2022-11-28T22:14:07.454Z,102311.06
2022-11-28T22:16:35.036Z,102311.97
2022-11-28T22:19:05.054Z,102308.41
2022-11-28T22:21:55.311Z,102310.25
2022-11-28T22:24:24.166Z,102315.47
2022-11-28T22:26:53.356Z,102308.59
2022-11-28T22:29:21.951Z,102292.91
2022-11-28T22:31:49.705Z,102294.63
2022-11-28T22:34:18.652Z,102294.63
2022-11-28T22:36:46.259Z,102290.25
2022-11-28T22:39:13.835Z,102292.78
2022-11-28T22:41:43.438Z,102290.16
2022-11-28T22:44:12.026Z,102291.03
2022-11-28T22:46:39.622Z,102294.53
2022-11-28T22:49:09.206Z,102292.84
2022-11-28T22:51:39.339Z,102299.84
2022-11-28T22:54:07.167Z,102298.13
2022-11-28T22:56:35.141Z,102298.06
2022-11-28T22:59:05.187Z,102299.78
2022-11-28T23:01:34.477Z,102303.25
2022-11-28T23:04:02.959Z,102301.50
2022-11-28T23:06:34.437Z,102301.41
2022-11-28T23:09:06.339Z,102302.25
2022-11-28T23:11:36.014Z,102302.31
2022-11-28T23:14:05.960Z,102300.59
2022-11-28T23:16:39.809Z,102304.88
2022-11-28T23:19:14.675Z,102295.31
2022-11-28T23:21:44.720Z,102299.72
2022-11-28T23:24:21.048Z,102290.09
2022-11-28T23:26:50.930Z,102304.00
2022-11-28T23:29:19.375Z,102300.47
2022-11-28T23:31:47.846Z,102295.19
2022-11-28T23:34:16.474Z,102310.03
2022-11-28T23:36:46.630Z,102307.41
2022-11-28T23:39:20.215Z,102316.09
2022-11-28T23:41:48.319Z,102321.38
2022-11-28T23:44:18.039Z,102319.63
2022-11-28T23:46:46.642Z,102312.69
2022-11-28T23:49:14.652Z,102301.31
2022-11-28T23:51:42.577Z,102294.38
2022-11-28T23:54:11.324Z,102296.13
2022-11-28T23:56:41.090Z,102277.88
2022-11-28T23:59:10.696Z,102283.00
